Time;durP1;ratioP1;P1;durP2;ratioP2;P2;SDS_P1;SDS_P2;PMS_P1;PMS_P2;Temp;Humidity;BMP_temperature;BMP_pressure;BME280_temperature;BME280_humidity;BME280_pressure;Samples;Min_cycle;Max_cycle;Signal;HPM_P1;HPM_P2
2022/12/26 00:00:37;;;;;;;57.85;31.98;;;;;;;9.30;100.00;100990.72;5305901;28;20024;-88
2022/12/26 00:03:09;;;;;;;60.20;32.92;;;;;;;9.32;100.00;100992.25;5306258;28;20024;-88
2022/12/26 00:05:40;;;;;;;64.82;34.17;;;;;;;9.31;100.00;101001.22;5306677;28;20024;-88
2022/12/26 00:08:11;;;;;;;65.07;35.08;;;;;;;9.28;100.00;100989.00;5312817;28;20028;-88
2022/12/26 00:10:43;;;;;;;62.42;34.03;;;;;;;9.33;100.00;100993.13;5317526;28;20537;-88
2022/12/26 00:13:14;;;;;;;67.75;35.92;;;;;;;9.36;100.00;100999.03;5307094;28;20040;-88
2022/12/26 00:15:46;;;;;;;66.32;36.53;;;;;;;9.36;100.00;101007.00;5298588;28;20039;-88
2022/12/26 00:18:17;;;;;;;68.57;37.13;;;;;;;9.32;100.00;100999.41;5288396;28;20406;-88
2022/12/26 00:20:49;;;;;;;67.57;38.05;;;;;;;9.32;100.00;101004.72;5304139;28;20039;-88
2022/12/26 00:23:20;;;;;;;71.55;40.03;;;;;;;9.31;100.00;101008.34;5316140;28;20022;-90
2022/12/26 00:25:51;;;;;;;68.90;36.10;;;;;;;9.31;100.00;101025.19;5310397;28;20029;-89
2022/12/26 00:28:22;;;;;;;69.47;38.20;;;;;;;9.35;100.00;101015.13;5308653;28;20427;-87
2022/12/26 00:30:54;;;;;;;68.40;39.67;;;;;;;9.37;100.00;101016.66;5319994;28;20085;-88
2022/12/26 00:33:25;;;;;;;77.15;39.13;;;;;;;9.35;100.00;101031.94;5316148;28;20028;-87
2022/12/26 00:36:07;;;;;;;76.25;40.75;;;;;;;9.35;100.00;101036.41;5313111;28;20389;-88
2022/12/26 00:38:40;;;;;;;67.85;38.10;;;;;;;9.33;100.00;101025.06;5316810;28;20028;-88
2022/12/26 00:41:12;;;;;;;73.47;39.35;;;;;;;9.33;100.00;101036.53;5328587;28;20031;-87
2022/12/26 00:43:44;;;;;;;65.05;37.20;;;;;;;9.33;100.00;101023.22;5337991;28;20034;-87
2022/12/26 00:46:17;;;;;;;59.63;37.65;;;;;;;9.36;100.00;101024.78;5327669;28;20076;-87
2022/12/26 00:48:48;;;;;;;67.93;38.03;;;;;;;9.26;100.00;101025.56;5330102;28;20036;-87
2022/12/26 00:51:20;;;;;;;63.58;38.78;;;;;;;9.27;100.00;101031.72;5330670;28;20043;-87
2022/12/26 00:53:51;;;;;;;59.53;36.03;;;;;;;9.31;100.00;101038.50;5330831;28;20076;-87
2022/12/26 00:56:23;;;;;;;65.15;36.83;;;;;;;9.23;100.00;101033.81;5329605;28;20113;-87
2022/12/26 00:58:55;;;;;;;70.07;36.60;;;;;;;9.26;100.00;101041.53;5328311;28;20020;-88
2022/12/26 01:01:29;;;;;;;69.35;37.50;;;;;;;9.32;100.00;101044.66;5331734;28;20028;-87
2022/12/26 01:04:00;;;;;;;68.90;39.15;;;;;;;9.27;100.00;101042.38;5331948;28;20080;-87
2022/12/26 01:06:32;;;;;;;70.38;37.15;;;;;;;9.23;100.00;101020.50;5330099;28;20036;-87
2022/12/26 01:09:03;;;;;;;67.20;38.83;;;;;;;9.20;100.00;101023.44;5330140;28;20045;-87
2022/12/26 01:11:40;;;;;;;68.18;39.00;;;;;;;9.19;100.00;101039.53;5329309;28;20046;-87
2022/12/26 01:14:15;;;;;;;61.33;35.80;;;;;;;9.19;100.00;101055.50;5309335;28;20036;-87
2022/12/26 01:16:47;;;;;;;54.92;32.25;;;;;;;9.26;100.00;101048.69;5328765;28;20035;-87
2022/12/26 01:19:18;;;;;;;77.25;39.70;;;;;;;9.18;100.00;101057.28;5318872;28;20036;-88
2022/12/26 01:21:49;;;;;;;70.72;40.50;;;;;;;9.23;100.00;101065.75;5324456;27;20020;-87
2022/12/26 01:24:21;;;;;;;78.13;41.40;;;;;;;9.19;100.00;101048.34;5323459;28;20070;-86
2022/12/26 01:26:52;;;;;;;73.25;41.10;;;;;;;9.20;100.00;101044.72;5314470;28;20024;-87
2022/12/26 01:29:23;;;;;;;72.75;39.47;;;;;;;9.20;100.00;101043.88;5315421;28;20591;-88
2022/12/26 01:31:55;;;;;;;69.45;39.60;;;;;;;9.17;100.00;101044.97;5311524;28;20020;-87
2022/12/26 01:34:26;;;;;;;65.90;38.97;;;;;;;9.16;100.00;101050.44;5312526;28;20409;-88
2022/12/26 01:36:57;;;;;;;65.18;37.33;;;;;;;9.15;100.00;101048.72;5311239;28;20111;-88
2022/12/26 01:39:29;;;;;;;67.25;41.15;;;;;;;9.11;100.00;101045.47;5312109;28;20027;-88
2022/12/26 01:42:00;;;;;;;58.45;35.47;;;;;;;9.11;100.00;101039.31;5309436;28;20032;-87
2022/12/26 01:45:30;;;;;;;59.72;34.80;;;;;;;9.14;100.00;101041.72;5311233;28;20104;-87
2022/12/26 01:48:21;;;;;;;54.40;34.75;;;;;;;9.00;100.00;101054.34;5236530;28;20405;-88
2022/12/26 01:50:52;;;;;;;52.08;33.53;;;;;;;8.93;100.00;101047.03;5242520;28;20506;-89
2022/12/26 01:53:46;;;;;;;48.75;31.50;;;;;;;8.93;100.00;101049.69;5289967;28;20044;-88
2022/12/26 01:56:23;;;;;;;47.30;31.73;;;;;;;8.92;100.00;101051.47;5307262;28;20362;-87
2022/12/26 01:58:59;;;;;;;;;;;;;;;8.93;100.00;101053.19;5308333;28;20024;-88
2022/12/26 02:01:33;;;;;;;47.42;31.75;;;;;;;8.81;100.00;101044.38;5306507;28;19950;-88
2022/12/26 02:07:02;;;;;;;46.05;30.40;;;;;;;8.77;100.00;101050.94;5308111;28;20037;-88
2022/12/26 02:09:34;;;;;;;52.30;32.92;;;;;;;8.76;100.00;101048.41;5316129;28;20028;-87
2022/12/26 02:12:09;;;;;;;41.70;30.20;;;;;;;8.82;100.00;101058.53;5315995;28;20028;-88
2022/12/26 02:14:41;;;;;;;45.95;29.48;;;;;;;8.85;100.00;101053.81;5307899;28;20151;-88
2022/12/26 02:17:13;;;;;;;41.05;29.42;;;;;;;8.92;100.00;101062.13;5304448;28;20021;-88
2022/12/26 02:20:08;;;;;;;37.22;27.15;;;;;;;8.99;100.00;101062.47;5309409;28;20028;-88
2022/12/26 02:22:58;;;;;;;43.03;28.95;;;;;;;8.94;100.00;101065.53;5320528;27;20098;-88
2022/12/26 02:26:17;;;;;;;38.13;26.85;;;;;;;8.99;100.00;101051.81;5288896;28;20055;-88
2022/12/26 02:29:05;;;;;;;36.10;26.77;;;;;;;9.04;100.00;101062.94;5306766;28;20408;-88
2022/12/26 02:31:47;;;;;;;39.47;27.25;;;;;;;9.00;100.00;101053.53;5306140;28;20036;-88
2022/12/26 02:34:32;;;;;;;34.00;27.15;;;;;;;9.04;100.00;101045.13;5306250;28;20056;-87
2022/12/26 02:37:27;;;;;;;33.80;26.27;;;;;;;9.01;100.00;101042.75;5311478;28;20030;-88
2022/12/26 02:40:29;;;;;;;32.25;26.17;;;;;;;8.97;100.00;101059.09;5306161;28;20028;-87
2022/12/26 02:43:39;;;;;;;35.17;26.13;;;;;;;9.00;100.00;101059.69;5307666;28;20039;-88
2022/12/26 03:13:09;;;;;;;33.42;24.27;;;;;;;9.00;100.00;101072.16;5322414;28;20040;-86
2022/12/26 03:13:35;;;;;;;23.02;18.27;;;;;;;8.62;100.00;101065.47;5304579;28;20048;-87
2022/12/26 03:19:04;;;;;;;23.48;18.80;;;;;;;8.63;100.00;101075.16;5314949;28;20496;-88
2022/12/26 03:21:41;;;;;;;24.98;18.58;;;;;;;8.68;100.00;101073.81;5308572;28;20570;-88
2022/12/26 03:24:16;;;;;;;23.83;18.27;;;;;;;8.73;100.00;101064.59;5301944;28;20048;-87
2022/12/26 03:26:52;;;;;;;22.73;18.02;;;;;;;8.73;100.00;101053.97;5312930;28;20091;-87
2022/12/26 03:32:13;;;;;;;19.95;17.13;;;;;;;8.76;100.00;101059.03;5304494;28;20036;-88
2022/12/26 03:34:45;;;;;;;21.25;17.30;;;;;;;8.80;100.00;101048.03;5286870;28;20078;-87
2022/12/26 03:37:25;;;;;;;20.67;16.92;;;;;;;8.81;100.00;101046.22;5310397;28;20028;-88
2022/12/26 04:19:33;;;;;;;18.65;14.70;;;;;;;8.54;100.00;101103.31;5290755;28;20041;-87
2022/12/26 04:45:33;;;;;;;15.27;11.93;;;;;;;8.56;100.00;101066.81;5305199;28;20040;-87
2022/12/26 04:50:54;;;;;;;14.75;12.00;;;;;;;8.52;100.00;101060.91;5306217;28;20056;-87
2022/12/26 04:53:26;;;;;;;15.93;13.02;;;;;;;8.52;100.00;101071.53;5302673;28;20078;-87
2022/12/26 04:55:57;;;;;;;16.85;13.20;;;;;;;8.49;100.00;101065.63;5309935;28;20059;-87
2022/12/26 04:58:29;;;;;;;15.32;12.93;;;;;;;8.49;100.00;101062.97;5306093;28;20178;-87
2022/12/26 05:09:33;;;;;;;13.88;12.20;;;;;;;8.49;100.00;101078.91;5305512;28;20079;-88
2022/12/26 05:09:34;;;;;;;15.85;12.65;;;;;;;8.40;100.00;101067.19;5301717;28;20037;-87
2022/12/26 05:12:08;;;;;;;16.70;12.60;;;;;;;8.42;100.00;101078.56;5303339;28;20040;-87
2022/12/26 05:14:39;;;;;;;16.77;13.23;;;;;;;8.38;100.00;101085.06;5309359;28;20052;-87
2022/12/26 05:28:43;;;;;;;16.05;12.50;;;;;;;8.28;100.00;101084.09;5323178;28;20025;-87
2022/12/26 05:31:16;;;;;;;16.17;12.32;;;;;;;8.28;100.00;101090.25;5309849;28;20039;-87
2022/12/26 05:36:41;;;;;;;16.58;12.07;;;;;;;8.28;100.00;101078.78;5302679;28;20146;-86
2022/12/26 05:39:12;;;;;;;14.63;11.15;;;;;;;8.19;100.00;101069.72;5303526;28;20040;-87
2022/12/26 05:41:44;;;;;;;15.25;11.57;;;;;;;8.22;100.00;101066.84;5304125;28;20031;-87
2022/12/26 05:44:15;;;;;;;15.25;10.77;;;;;;;8.21;100.00;101056.34;5305881;28;20032;-88
2022/12/26 05:46:47;;;;;;;13.25;10.52;;;;;;;8.20;100.00;101050.16;5308471;28;20028;-87
2022/12/26 05:49:18;;;;;;;17.92;10.95;;;;;;;8.12;100.00;101042.78;5306884;28;20151;-86
2022/12/26 05:51:50;;;;;;;15.68;10.80;;;;;;;8.18;100.00;101054.75;5310753;28;20024;-87
2022/12/26 05:54:21;;;;;;;13.50;10.57;;;;;;;8.20;100.00;101042.19;5309893;28;20449;-86
2022/12/26 05:56:52;;;;;;;13.52;10.30;;;;;;;8.19;100.00;101045.81;5309897;28;20112;-87
2022/12/26 05:59:24;;;;;;;14.00;11.02;;;;;;;8.17;100.00;101060.19;5305422;28;20024;-87
2022/12/26 06:01:55;;;;;;;14.25;10.50;;;;;;;8.20;100.00;101047.50;5304379;28;20135;-87
2022/12/26 06:04:28;;;;;;;13.40;9.77;;;;;;;8.13;100.00;101063.09;5313146;27;20473;-86
2022/12/26 06:07:00;;;;;;;14.13;9.70;;;;;;;8.14;100.00;101066.59;5304111;28;20025;-87
2022/12/26 06:09:31;;;;;;;11.15;9.32;;;;;;;8.19;100.00;101071.53;5296131;28;20134;-88
2022/12/26 06:12:02;;;;;;;12.93;10.35;;;;;;;8.29;100.00;101088.44;5312325;28;20115;-87
2022/12/26 06:14:34;;;;;;;14.65;9.82;;;;;;;8.33;100.00;101088.06;5310022;28;20083;-87
2022/12/26 06:17:05;;;;;;;11.55;9.52;;;;;;;8.42;100.00;101083.00;5315290;28;31954;-88
2022/12/26 06:19:36;;;;;;;12.02;9.15;;;;;;;8.43;100.00;101082.91;5308058;28;20079;-88
2022/12/26 06:22:08;;;;;;;10.40;9.07;;;;;;;8.47;100.00;101088.84;5305806;28;20035;-87
2022/12/26 06:24:39;;;;;;;10.88;8.05;;;;;;;8.45;100.00;101094.28;5306038;28;20043;-87
2022/12/26 06:27:10;;;;;;;10.32;8.70;;;;;;;8.48;100.00;101099.31;5305556;28;27637;-88
2022/12/26 06:29:41;;;;;;;11.20;8.57;;;;;;;8.47;100.00;101095.00;5307707;28;20032;-88
2022/12/26 06:32:13;;;;;;;9.90;8.20;;;;;;;8.48;100.00;101109.13;5308798;28;20024;-87
2022/12/26 06:34:44;;;;;;;8.73;7.82;;;;;;;8.47;100.00;101118.09;5308703;28;20032;-87
2022/12/26 06:37:15;;;;;;;9.43;7.70;;;;;;;8.46;100.00;101116.38;5310907;28;20044;-87
2022/12/26 06:39:47;;;;;;;9.23;7.63;;;;;;;8.47;100.00;101115.41;5305810;28;20056;-87
2022/12/26 06:42:18;;;;;;;9.65;7.40;;;;;;;8.42;100.00;101120.22;5307789;28;20028;-86
2022/12/26 06:44:49;;;;;;;9.18;7.47;;;;;;;8.37;100.00;101125.06;5314442;28;20033;-86
2022/12/26 06:47:21;;;;;;;8.35;7.45;;;;;;;8.37;100.00;101117.09;5306589;28;32066;-86
2022/12/26 06:49:52;;;;;;;8.60;7.63;;;;;;;8.29;100.00;101113.22;5305449;28;20032;-88
2022/12/26 06:52:23;;;;;;;9.75;7.63;;;;;;;8.30;100.00;101111.41;5309478;28;20020;-87
2022/12/26 06:54:55;;;;;;;11.00;7.65;;;;;;;8.24;100.00;101111.88;5306851;28;20062;-87
2022/12/26 06:57:27;;;;;;;7.60;6.90;;;;;;;8.24;100.00;101111.88;5312141;27;20052;-87
2022/12/26 06:59:58;;;;;;;8.30;7.50;;;;;;;8.26;100.00;101109.97;5306155;28;20016;-87
2022/12/26 07:02:29;;;;;;;7.55;6.72;;;;;;;8.25;100.00;101111.75;5305648;28;20093;-87
2022/12/26 07:05:01;;;;;;;9.63;6.75;;;;;;;8.26;100.00;101105.47;5307482;28;20028;-87
2022/12/26 07:07:32;;;;;;;8.65;6.90;;;;;;;8.28;100.00;101100.06;5289665;28;22750;-87
2022/12/26 07:10:03;;;;;;;6.85;6.07;;;;;;;8.27;100.00;101107.16;5306565;27;20427;-87
2022/12/26 07:12:35;;;;;;;6.80;5.80;;;;;;;8.19;100.00;101104.28;5307321;28;20078;-87
2022/12/26 07:15:08;;;;;;;8.27;6.15;;;;;;;8.15;100.00;101121.41;5303421;28;20501;-87
2022/12/26 07:17:40;;;;;;;7.18;6.38;;;;;;;8.09;100.00;101111.28;5298983;28;20040;-88
2022/12/26 07:20:11;;;;;;;7.63;6.30;;;;;;;8.06;100.00;101114.16;5305356;28;20468;-88
2022/12/26 07:22:43;;;;;;;7.30;6.03;;;;;;;8.04;100.00;101114.28;5305341;28;20086;-88
2022/12/26 07:25:14;;;;;;;9.05;6.25;;;;;;;8.06;100.00;101122.13;5286023;28;20444;-87
2022/12/26 07:27:45;;;;;;;9.43;6.75;;;;;;;8.10;100.00;101118.28;5311010;28;20171;-86
2022/12/26 07:30:17;;;;;;;10.90;6.80;;;;;;;8.07;100.00;101118.53;5306800;28;20492;-87
2022/12/26 07:32:48;;;;;;;8.35;6.22;;;;;;;8.12;100.00;101121.66;5301928;28;20459;-86
2022/12/26 07:35:19;;;;;;;8.82;6.05;;;;;;;8.16;100.00;101115.13;5308308;28;20144;-87
2022/12/26 07:37:51;;;;;;;9.07;6.13;;;;;;;8.11;100.00;101127.94;5298258;28;20025;-86
2022/12/26 07:40:22;;;;;;;9.68;5.88;;;;;;;8.16;100.00;101133.75;5315542;28;20025;-88
2022/12/26 07:42:53;;;;;;;6.60;5.50;;;;;;;8.19;100.00;101122.00;5304382;28;20373;-87
2022/12/26 07:45:25;;;;;;;8.85;5.80;;;;;;;8.21;100.00;101134.22;5295685;28;20028;-86
2022/12/26 07:47:57;;;;;;;7.60;6.15;;;;;;;8.22;100.00;101117.34;5311203;28;20025;-86
2022/12/26 07:50:28;;;;;;;9.20;6.18;;;;;;;8.23;100.00;101126.13;5315702;28;20198;-86
2022/12/26 07:52:59;;;;;;;8.13;5.97;;;;;;;8.23;100.00;101120.81;5309344;28;20029;-87
2022/12/26 07:55:31;;;;;;;7.82;6.22;;;;;;;8.26;100.00;101125.91;5296148;28;20029;-87
2022/12/26 07:58:02;;;;;;;9.13;6.18;;;;;;;8.22;100.00;101135.94;5286227;28;20033;-87
2022/12/26 08:00:33;;;;;;;8.88;5.95;;;;;;;8.29;100.00;101125.63;5307508;28;20020;-87
2022/12/26 08:03:04;;;;;;;6.30;5.70;;;;;;;8.30;100.00;101130.84;5311598;28;20021;-87
2022/12/26 08:05:36;;;;;;;8.65;6.05;;;;;;;8.27;100.00;101132.91;5317840;28;20021;-87
2022/12/26 08:08:07;;;;;;;12.70;5.68;;;;;;;8.31;100.00;101137.03;5319306;28;20056;-86
2022/12/26 08:10:38;;;;;;;8.32;5.97;;;;;;;8.34;100.00;101131.44;5306779;28;20028;-86
2022/12/26 08:13:10;;;;;;;9.23;5.07;;;;;;;8.36;100.00;101136.63;5305721;28;20059;-86
2022/12/26 08:15:41;;;;;;;7.05;5.30;;;;;;;8.33;100.00;101137.75;5285296;28;20096;-86
2022/12/26 08:18:12;;;;;;;6.85;5.20;;;;;;;8.33;100.00;101145.72;5307225;28;20115;-86
2022/12/26 08:20:43;;;;;;;9.23;5.32;;;;;;;8.40;100.00;101148.75;5301315;28;20024;-86
2022/12/26 08:23:15;;;;;;;10.13;5.25;;;;;;;8.41;100.00;101137.97;5303177;28;20406;-86
2022/12/26 08:25:46;;;;;;;10.60;4.53;;;;;;;8.50;100.00;101142.59;5303030;28;20052;-86
2022/12/26 08:28:18;;;;;;;6.25;4.25;;;;;;;8.60;100.00;101136.56;5306907;28;20162;-86
2022/12/26 08:30:49;;;;;;;5.57;4.07;;;;;;;8.65;100.00;101135.22;5304014;28;20032;-86
2022/12/26 08:33:21;;;;;;;7.75;4.40;;;;;;;8.72;100.00;101135.56;5304140;28;20393;-86
2022/12/26 08:35:52;;;;;;;8.55;4.47;;;;;;;8.76;100.00;101149.47;5304020;28;20170;-86
2022/12/26 08:38:23;;;;;;;7.07;4.97;;;;;;;8.78;100.00;101140.38;5302922;28;20035;-87
2022/12/26 08:40:55;;;;;;;4.85;4.10;;;;;;;8.94;100.00;101153.31;5303596;28;20025;-86
2022/12/26 08:43:27;;;;;;;6.97;4.22;;;;;;;9.02;100.00;101150.84;5306908;28;20408;-86
2022/12/26 08:46:01;;;;;;;5.40;4.13;;;;;;;9.11;100.00;101162.56;5303101;28;20024;-87
2022/12/26 08:48:33;;;;;;;5.78;3.72;;;;;;;9.21;100.00;101170.66;5303533;28;20070;-86
2022/12/26 08:51:07;;;;;;;6.10;4.07;;;;;;;9.38;100.00;101166.59;5299007;28;20067;-86
2022/12/26 08:53:39;;;;;;;6.47;3.72;;;;;;;9.45;100.00;101160.66;5302757;28;20028;-86
2022/12/26 08:56:14;;;;;;;4.07;2.90;;;;;;;9.52;100.00;101179.63;5302280;28;20012;-86
2022/12/26 08:58:46;;;;;;;4.72;3.10;;;;;;;9.48;100.00;101178.16;5302982;28;20522;-86
2022/12/26 09:01:25;;;;;;;7.75;2.90;;;;;;;9.51;100.00;101174.44;5301858;28;20038;-86
2022/12/26 09:04:01;;;;;;;3.30;2.20;;;;;;;9.52;100.00;101181.44;5301419;28;20477;-85
2022/12/26 09:06:34;;;;;;;;;;;;;;;9.62;100.00;101191.22;5301900;28;20028;-84
2022/12/26 09:09:07;;;;;;;5.88;2.50;;;;;;;9.72;100.00;101179.78;5303361;28;20388;-84
2022/12/26 09:11:41;;;;;;;4.57;1.90;;;;;;;9.83;100.00;101185.03;5298688;28;20435;-84
2022/12/26 09:14:12;;;;;;;4.82;2.05;;;;;;;9.87;100.00;101174.97;5304937;28;20084;-84
2022/12/26 09:16:45;;;;;;;6.68;2.03;;;;;;;10.09;100.00;101188.16;5283463;28;20460;-85
2022/12/26 09:19:17;;;;;;;4.10;1.80;;;;;;;10.25;100.00;101182.34;5308381;28;20032;-85
2022/12/26 09:22:49;;;;;;;4.82;1.73;;;;;;;10.27;100.00;101190.22;5301038;28;20123;-84
2022/12/26 09:24:41;;;;;;;3.63;1.58;;;;;;;10.27;100.00;101196.41;5305161;28;20048;-84
2022/12/26 09:27:12;;;;;;;5.57;1.60;;;;;;;10.34;100.00;101180.75;5317356;28;20139;-84
2022/12/26 09:29:43;;;;;;;5.38;1.85;;;;;;;10.38;100.00;101195.53;5306102;28;20040;-84
2022/12/26 09:32:15;;;;;;;5.75;1.30;;;;;;;10.52;100.00;101210.34;5303203;28;20119;-84
2022/12/26 09:34:47;;;;;;;5.85;1.55;;;;;;;10.32;100.00;101210.22;5305581;28;20883;-85
2022/12/26 09:37:19;;;;;;;4.85;1.70;;;;;;;10.20;100.00;101220.09;5311300;28;20075;-85
2022/12/26 09:39:50;;;;;;;7.07;1.70;;;;;;;10.17;100.00;101220.34;5307636;28;20028;-85
2022/12/26 09:42:37;;;;;;;4.63;1.23;;;;;;;10.16;100.00;101225.81;5310988;28;20369;-85
2022/12/26 09:45:51;;;;;;;5.70;1.40;;;;;;;10.14;100.00;101222.44;5315626;28;20095;-85
2022/12/26 09:48:33;;;;;;;5.18;1.45;;;;;;;10.10;100.00;101229.84;5299675;28;20483;-84
2022/12/26 09:51:04;;;;;;;4.05;1.30;;;;;;;10.08;100.00;101233.59;5308221;28;20044;-85
2022/12/26 09:53:42;;;;;;;5.82;1.63;;;;;;;10.02;100.00;101240.28;5314256;28;20025;-86
2022/12/26 09:56:17;;;;;;;3.40;1.30;;;;;;;10.05;100.00;101245.38;5314264;27;20027;-87
2022/12/26 09:59:06;;;;;;;6.70;1.55;;;;;;;10.09;100.00;101245.97;5310895;28;20038;-85
2022/12/26 10:01:38;;;;;;;4.38;1.65;;;;;;;10.02;100.00;101258.94;5308931;28;20029;-86
2022/12/26 10:04:21;;;;;;;4.47;1.45;;;;;;;10.08;100.00;101252.25;5311721;28;20052;-86
2022/12/26 10:07:22;;;;;;;3.13;1.38;;;;;;;10.12;100.00;101251.88;5308696;28;20048;-85
2022/12/26 10:09:56;;;;;;;4.80;1.65;;;;;;;10.08;100.00;101252.25;5310480;28;20040;-86
2022/12/26 10:12:46;;;;;;;3.55;1.33;;;;;;;10.10;100.00;101261.81;5312724;28;20035;-86
2022/12/26 10:15:34;;;;;;;6.82;2.10;;;;;;;10.20;100.00;101261.88;5323050;27;20044;-86
2022/12/26 10:18:19;;;;;;;5.88;1.90;;;;;;;10.27;100.00;101260.38;5311667;28;20024;-86
2022/12/26 10:21:02;;;;;;;7.53;1.92;;;;;;;10.28;100.00;101270.09;5317680;28;20080;-85
2022/12/26 10:23:39;;;;;;;6.47;1.88;;;;;;;10.26;100.00;101268.53;5308123;28;20020;-86
2022/12/26 10:26:28;;;;;;;6.72;1.70;;;;;;;10.24;100.00;101268.66;5301352;28;20166;-86
2022/12/26 10:29:08;;;;;;;6.13;1.80;;;;;;;10.20;100.00;101267.22;5303496;28;20135;-85
2022/12/26 10:32:01;;;;;;;8.40;2.13;;;;;;;10.23;100.00;101270.47;5305559;28;20036;-86
2022/12/26 10:34:40;;;;;;;5.20;1.95;;;;;;;10.27;100.00;101292.38;5300558;28;20039;-86
2022/12/26 10:37:40;;;;;;;7.90;2.40;;;;;;;10.18;100.00;101322.47;5306825;28;20017;-87
2022/12/26 10:40:40;;;;;;;5.65;1.45;;;;;;;9.73;100.00;101326.16;5310623;28;20449;-87
2022/12/26 10:43:30;;;;;;;4.55;1.38;;;;;;;9.22;100.00;101329.38;5318298;28;20052;-87
2022/12/26 10:46:16;;;;;;;7.78;1.65;;;;;;;8.99;100.00;101342.66;5324352;28;20028;-87
2022/12/26 10:48:48;;;;;;;10.20;1.53;;;;;;;8.79;100.00;101336.25;5309749;28;20082;-87
2022/12/26 10:51:19;;;;;;;8.55;1.20;;;;;;;8.73;100.00;101338.53;5309244;28;20283;-86
2022/12/26 10:53:52;;;;;;;7.40;1.48;;;;;;;8.70;100.00;101337.81;5308636;28;20115;-87
2022/12/26 10:56:24;;;;;;;5.38;1.27;;;;;;;8.68;100.00;101350.38;5303360;28;20082;-87
2022/12/26 10:59:02;;;;;;;8.32;1.65;;;;;;;8.69;100.00;101349.41;5303724;28;20032;-87
2022/12/26 11:01:39;;;;;;;7.57;1.80;;;;;;;8.74;100.00;101353.53;5303900;28;20107;-87
2022/12/26 11:04:24;;;;;;;7.07;1.33;;;;;;;8.74;100.00;101365.00;5299007;28;20491;-86
2022/12/26 11:06:56;;;;;;;8.85;1.95;;;;;;;8.80;100.00;101369.00;5303415;28;20080;-87
2022/12/26 11:09:27;;;;;;;10.30;1.98;;;;;;;8.84;100.00;101370.50;5313218;28;20109;-87
2022/12/26 11:11:58;;;;;;;11.73;2.60;;;;;;;8.84;100.00;101376.66;5313014;28;20031;-87
2022/12/26 11:14:43;;;;;;;9.15;2.67;;;;;;;9.04;100.00;101377.75;5305110;28;20056;-86
2022/12/26 11:17:27;;;;;;;8.20;2.10;;;;;;;9.21;100.00;101388.91;5304019;28;20074;-87
2022/12/26 11:20:15;;;;;;;12.85;2.38;;;;;;;9.42;100.00;101387.22;5304828;28;20389;-87
2022/12/26 11:22:47;;;;;;;10.88;2.03;;;;;;;9.61;100.00;101393.75;5304239;28;20048;-86
2022/12/26 11:25:22;;;;;;;10.77;2.42;;;;;;;9.62;100.00;101393.63;5311969;28;20468;-87
2022/12/26 11:27:58;;;;;;;11.15;2.25;;;;;;;9.48;100.00;101399.19;5303760;28;20063;-87
2022/12/26 11:30:32;;;;;;;8.02;2.00;;;;;;;9.32;100.00;101398.72;5304581;28;20374;-87
2022/12/26 11:33:16;;;;;;;11.32;2.67;;;;;;;9.42;100.00;101405.00;5303414;28;20035;-87
2022/12/26 11:35:49;;;;;;;12.27;2.58;;;;;;;9.38;100.00;101408.88;5303149;28;20032;-86
2022/12/26 11:38:33;;;;;;;12.50;3.05;;;;;;;9.33;100.00;101406.59;5307094;28;20085;-87
2022/12/26 11:44:13;;;;;;;11.52;2.63;;;;;;;9.82;100.00;101415.16;5296867;28;20037;-84
2022/12/26 11:46:49;;;;;;;9.50;2.13;;;;;;;9.72;100.00;101408.88;5301139;28;20033;-83
2022/12/26 11:49:21;;;;;;;15.57;3.00;;;;;;;9.56;100.00;101407.44;5302616;28;20036;-84
2022/12/26 11:51:53;;;;;;;7.60;1.92;;;;;;;10.24;100.00;101417.97;5301035;28;20066;-84
2022/12/26 11:54:25;;;;;;;9.32;2.60;;;;;;;11.43;100.00;101418.66;5302358;28;20832;-84
2022/12/26 11:57:25;;;;;;;7.93;2.30;;;;;;;12.49;100.00;101412.72;5301582;28;20024;-84
2022/12/26 12:00:37;;;;;;;12.80;2.38;;;;;;;13.95;100.00;101418.66;5302767;28;20119;-84
2022/12/26 12:03:13;;;;;;;6.43;1.75;;;;;;;13.34;100.00;101410.22;5204324;28;20122;-84
2022/12/26 12:05:56;;;;;;;7.63;2.22;;;;;;;12.96;100.00;101437.91;5294117;28;20037;-84
2022/12/26 12:08:57;;;;;;;7.53;1.70;;;;;;;12.57;100.00;101436.09;5296979;28;20017;-85
2022/12/26 12:11:50;;;;;;;4.65;1.40;;;;;;;11.32;100.00;101433.78;5287489;28;20129;-84
2022/12/26 12:14:57;;;;;;;7.47;2.10;;;;;;;11.11;100.00;101441.81;5285270;28;20055;-83
2022/12/26 12:17:31;;;;;;;10.55;1.90;;;;;;;10.54;100.00;101432.44;5304773;28;20025;-84
2022/12/26 12:20:11;;;;;;;6.53;1.50;;;;;;;10.19;100.00;101437.00;5307207;28;20136;-84
2022/12/26 12:22:52;;;;;;;4.05;1.33;;;;;;;9.84;100.00;101439.84;5311169;28;20040;-85
2022/12/26 12:26:17;;;;;;;7.25;1.80;;;;;;;9.74;100.00;101433.56;5303352;28;20032;-84
2022/12/26 12:29:10;;;;;;;7.70;1.92;;;;;;;9.46;100.00;101431.25;5264006;28;20105;-84
2022/12/26 12:32:00;;;;;;;10.25;1.90;;;;;;;9.25;100.00;101443.59;5304965;28;20078;-84
2022/12/26 12:34:52;;;;;;;8.60;1.92;;;;;;;9.01;100.00;101433.91;5302899;28;20028;-84
2022/12/26 12:37:32;;;;;;;9.35;1.88;;;;;;;9.10;100.00;101440.31;5302758;28;20539;-85
2022/12/26 12:40:35;;;;;;;7.10;1.50;;;;;;;9.06;100.00;101453.03;5301829;28;20028;-84
2022/12/26 12:43:13;;;;;;;9.38;1.50;;;;;;;8.85;100.00;101457.28;5312857;27;20042;-84
2022/12/26 12:46:06;;;;;;;7.80;1.38;;;;;;;8.87;100.00;101458.03;5309581;28;20032;-84
2022/12/26 12:49:13;;;;;;;5.45;1.10;;;;;;;8.84;100.00;101464.44;5303106;28;20043;-84
2022/12/26 12:51:58;;;;;;;4.50;0.90;;;;;;;8.74;100.00;101462.59;5302577;28;20032;-84
2022/12/26 12:54:54;;;;;;;3.53;1.30;;;;;;;8.70;100.00;101468.13;5294567;28;20112;-84
2022/12/26 12:57:34;;;;;;;5.40;1.55;;;;;;;8.58;100.00;101482.34;5308454;28;20036;-83
2022/12/26 13:00:27;;;;;;;6.53;1.20;;;;;;;8.46;100.00;101494.72;5310223;27;20032;-86
2022/12/26 13:03:10;;;;;;;7.88;1.83;;;;;;;8.32;100.00;101481.56;5298724;28;20035;-84
2022/12/26 13:06:05;;;;;;;5.13;1.20;;;;;;;8.35;100.00;101486.66;5279044;28;20481;-82
2022/12/26 13:09:04;;;;;;;5.43;1.80;;;;;;;8.50;100.00;101484.72;5285640;28;20124;-83
2022/12/26 13:11:40;;;;;;;5.47;1.33;;;;;;;8.65;100.00;101480.91;5299247;28;20047;-83
2022/12/26 13:14:25;;;;;;;5.78;1.40;;;;;;;9.01;100.00;101478.25;5298340;28;20052;-84
2022/12/26 13:17:05;;;;;;;5.82;1.10;;;;;;;9.25;100.00;101479.03;5303817;28;20025;-83
2022/12/26 13:20:14;;;;;;;8.43;1.75;;;;;;;9.67;100.00;101478.47;5291525;28;20027;-84
2022/12/26 13:26:24;;;;;;;5.88;1.50;;;;;;;9.40;100.00;101482.34;5323775;28;20024;-83
2022/12/26 13:29:01;;;;;;;5.20;1.13;;;;;;;8.99;100.00;101486.34;5288626;28;20036;-83
2022/12/26 13:31:34;;;;;;;3.88;1.20;;;;;;;8.84;100.00;101493.69;5301207;27;20330;-82
2022/12/26 13:34:17;;;;;;;5.50;1.30;;;;;;;8.63;100.00;101497.97;5301564;28;20051;-83
2022/12/26 13:36:54;;;;;;;6.55;1.27;;;;;;;8.35;100.00;101504.44;5291134;28;20017;-83
2022/12/26 13:39:26;;;;;;;7.38;1.40;;;;;;;8.12;100.00;101501.63;5283553;28;20029;-83
2022/12/26 13:45:34;;;;;;;5.57;1.25;;;;;;;8.11;100.00;101507.91;5298671;28;20037;-83
2022/12/26 13:48:30;;;;;;;5.90;0.95;;;;;;;8.19;100.00;101507.34;5301227;28;20104;-83
2022/12/26 13:51:04;;;;;;;2.78;0.90;;;;;;;8.62;100.00;101515.72;5264796;28;20374;-83
2022/12/26 13:53:40;;;;;;;4.47;1.02;;;;;;;9.19;100.00;101516.78;5302569;28;21137;-82
2022/12/26 13:56:17;;;;;;;5.40;1.05;;;;;;;9.60;100.00;101515.41;5300766;28;20032;-82
2022/12/26 13:58:52;;;;;;;3.65;0.77;;;;;;;9.45;100.00;101519.28;5295277;28;20024;-83
2022/12/26 14:01:29;;;;;;;5.90;1.17;;;;;;;9.37;100.00;101514.53;5301704;28;20025;-83
2022/12/26 14:04:20;;;;;;;10.75;2.35;;;;;;;8.95;100.00;101521.31;5300760;28;20372;-83
2022/12/26 14:07:32;;;;;;;4.20;0.93;;;;;;;8.19;100.00;101526.81;5298522;28;20119;-83
2022/12/26 14:10:11;;;;;;;3.65;1.10;;;;;;;7.68;100.00;101535.69;5296404;28;20060;-83
2022/12/26 14:13:29;;;;;;;7.88;2.08;;;;;;;7.29;100.00;101534.84;5302431;28;20025;-83
2022/12/26 14:16:24;;;;;;;4.10;1.10;;;;;;;6.87;100.00;101549.97;5288581;28;20053;-84